createdAt,value
2018-04-18T00:07:51.000Z,47.708
2018-04-18T00:17:51.000Z,47.813
2018-04-18T00:27:51.000Z,47.996
2018-04-18T00:37:51.000Z,48.089
2018-04-18T00:47:51.000Z,48.186
2018-04-18T00:57:51.000Z,48.249
2018-04-18T01:07:51.000Z,48.342
2018-04-18T01:17:51.000Z,48.426
2018-04-18T01:27:51.000Z,48.499
2018-04-18T01:37:51.000Z,48.562
2018-04-18T01:47:51.000Z,48.623
2018-04-18T01:57:51.000Z,48.717
2018-04-18T02:07:51.000Z,48.757
2018-04-18T02:17:51.000Z,48.842
2018-04-18T02:27:51.000Z,48.838
2018-04-18T02:37:51.000Z,48.922
2018-04-18T02:47:51.000Z,48.94
2018-04-18T02:57:51.000Z,49.013
2018-04-18T03:07:51.000Z,49.043
2018-04-18T03:17:51.000Z,49.115
2018-04-18T03:27:51.000Z,49.177
2018-04-18T03:37:51.000Z,49.217
2018-04-18T03:47:51.000Z,49.213
2018-04-18T03:57:51.000Z,49.31
2018-04-18T04:07:51.000Z,49.328
2018-04-18T04:17:51.000Z,49.369
2018-04-18T04:27:51.000Z,49.376
2018-04-18T04:37:51.000Z,49.459
2018-04-18T04:47:52.000Z,49.49
2018-04-18T04:57:52.000Z,49.476
2018-04-18T05:07:52.000Z,49.517
2018-04-18T05:17:52.000Z,49.589
2018-04-18T05:27:52.000Z,49.62
2018-04-18T05:37:52.000Z,49.619
2018-04-18T05:47:52.000Z,49.683
2018-04-18T05:57:52.000Z,49.652
2018-04-18T06:07:52.000Z,49.578
2018-04-18T06:17:52.000Z,49.493
2018-04-18T06:27:52.000Z,49.463
2018-04-18T06:37:52.000Z,49.49
2018-04-18T06:47:52.000Z,49.451
2018-04-18T06:57:52.000Z,49.398
2018-04-18T07:07:52.000Z,49.459
2018-04-18T07:17:52.000Z,49.35
2018-04-18T07:27:52.000Z,49.043
2018-04-18T07:37:52.000Z,48.694
2018-04-18T07:47:52.000Z,48.302
2018-04-18T07:57:52.000Z,48.029
2018-04-18T08:07:52.000Z,47.692
2018-04-18T08:17:52.000Z,47.336
2018-04-18T08:27:52.000Z,47.135
2018-04-18T08:37:52.000Z,46.91
2018-04-18T08:47:52.000Z,46.706
2018-04-18T08:57:52.000Z,46.393
2018-04-18T09:07:52.000Z,46.23
2018-04-18T09:17:52.000Z,46
2018-04-18T09:27:52.000Z,45.75
2018-04-18T09:37:52.000Z,45.543
2018-04-18T09:47:52.000Z,45.333
2018-04-18T09:57:52.000Z,44.955
2018-04-18T10:07:52.000Z,44.683
2018-04-18T10:17:52.000Z,44.412
2018-04-18T10:27:52.000Z,44.238
2018-04-18T10:37:52.000Z,43.909
2018-04-18T10:47:52.000Z,43.276
2018-04-18T10:57:52.000Z,43.152
2018-04-18T11:07:52.000Z,42.736
2018-04-18T11:17:52.000Z,42.851
2018-04-18T11:27:52.000Z,42.864
2018-04-18T11:37:52.000Z,42.792
2018-04-18T11:47:52.000Z,42.403
2018-04-18T11:57:52.000Z,42.004
2018-04-18T12:07:52.000Z,42.376
2018-04-18T12:17:53.000Z,42.416
2018-04-18T12:27:52.000Z,42.207
2018-04-18T12:37:52.000Z,42.25
2018-04-18T12:47:52.000Z,42.155
2018-04-18T12:57:53.000Z,42.123
2018-04-18T13:07:53.000Z,42.221
2018-04-18T13:17:53.000Z,42.165
2018-04-18T13:27:53.000Z,42.228
2018-04-18T13:37:53.000Z,42.153
2018-04-18T13:47:53.000Z,42.356
2018-04-18T13:57:53.000Z,42.494
2018-04-18T14:07:53.000Z,42.46
2018-04-18T14:17:53.000Z,42.698
2018-04-18T14:27:53.000Z,43.977
2018-04-18T14:37:53.000Z,44.901
2018-04-18T14:47:53.000Z,45.898
2018-04-18T14:57:53.000Z,40.684
2018-04-18T15:07:53.000Z,39.358
2018-04-18T15:17:53.000Z,37.538
2018-04-18T15:27:53.000Z,37.513
2018-04-18T15:37:53.000Z,36.004
2018-04-18T15:47:53.000Z,34.222
2018-04-18T15:57:53.000Z,34.448
2018-04-18T16:07:53.000Z,34.335
2018-04-18T16:17:53.000Z,34.594
2018-04-18T16:27:53.000Z,35.142
2018-04-18T16:37:53.000Z,37.621
2018-04-18T16:47:53.000Z,38.805
2018-04-18T16:57:53.000Z,39.744
2018-04-18T17:07:53.000Z,39.918
2018-04-18T17:17:53.000Z,40.624
2018-04-18T17:27:53.000Z,41.019
2018-04-18T17:37:56.000Z,41.084
2018-04-18T17:47:54.000Z,41.713
2018-04-18T17:57:53.000Z,42.166
2018-04-18T18:07:53.000Z,42.389
2018-04-18T18:17:54.000Z,42.641
2018-04-18T18:27:53.000Z,42.693
2018-04-18T18:37:53.000Z,42.88
2018-04-18T18:47:53.000Z,43.264
2018-04-18T18:57:53.000Z,43.446
2018-04-18T19:07:53.000Z,43.64
2018-04-18T19:17:53.000Z,43.618
2018-04-18T19:27:53.000Z,44.101
2018-04-18T19:37:53.000Z,44.242
2018-04-18T19:47:53.000Z,44.451
2018-04-18T19:57:53.000Z,44.518
2018-04-18T20:07:53.000Z,44.573
2018-04-18T20:17:53.000Z,44.498
2018-04-18T20:27:53.000Z,44.552
2018-04-18T20:37:53.000Z,44.477
2018-04-18T20:47:53.000Z,44.737
2018-04-18T20:57:53.000Z,44.763
2018-04-18T21:07:53.000Z,44.715
2018-04-18T21:17:54.000Z,44.512
2018-04-18T21:27:54.000Z,44.626
2018-04-18T21:37:54.000Z,44.809
2018-04-18T21:47:54.000Z,44.851
2018-04-18T21:57:54.000Z,45.001
2018-04-18T22:07:54.000Z,45.118
2018-04-18T22:17:54.000Z,45.223
2018-04-18T22:27:54.000Z,45.306
2018-04-18T22:37:54.000Z,45.24
2018-04-18T22:47:54.000Z,45.27
2018-04-18T22:57:54.000Z,45.387
2018-04-18T23:07:54.000Z,45.439
2018-04-18T23:17:54.000Z,45.501
2018-04-18T23:27:54.000Z,45.52
2018-04-18T23:37:55.000Z,45.648
2018-04-18T23:47:54.000Z,45.732
2018-04-18T23:57:54.000Z,45.762
